Time;durP1;ratioP1;P1;durP2;ratioP2;P2;SDS_P1;SDS_P2;PMS_P1;PMS_P2;Temp;Humidity;BMP_temperature;BMP_pressure;BME280_temperature;BME280_humidity;BME280_pressure;Samples;Min_cycle;Max_cycle;Signal;HPM_P1;HPM_P2
2023/12/15 10:14:56;;;;;;;11.00;10.20;;;10.00;56.10;;;;;;21013;6532;310942;-75
2023/12/15 10:17:22;;;;;;;11.15;10.20;;;10.00;56.00;;;;;;20622;6822;306777;-78
2023/12/15 10:19:48;;;;;;;8.43;7.73;;;9.80;57.80;;;;;;20731;6822;122350;-77
2023/12/15 10:22:14;;;;;;;9.50;8.70;;;9.80;57.60;;;;;;20354;6909;309341;-76
2023/12/15 10:24:39;;;;;;;8.32;7.62;;;9.70;57.90;;;;;;20500;6932;119555;-77
2023/12/15 10:27:07;;;;;;;9.90;8.80;;;9.50;59.30;;;;;;20346;6918;340610;-75
2023/12/15 10:29:31;;;;;;;9.45;8.65;;;9.50;58.80;;;;;;20286;6932;340383;-75
2023/12/15 10:31:57;;;;;;;8.75;8.00;;;9.60;58.20;;;;;;20323;6919;310378;-75
2023/12/15 10:34:26;;;;;;;10.40;8.63;;;9.80;57.80;;;;;;20389;6904;310315;-76
2023/12/15 10:36:52;;;;;;;9.37;8.47;;;10.00;56.50;;;;;;20372;6904;310282;-74
2023/12/15 10:39:18;;;;;;;9.23;8.43;;;10.00;56.30;;;;;;20377;6904;311363;-75
2023/12/15 10:41:44;;;;;;;8.60;7.90;;;10.00;56.30;;;;;;20370;6904;281187;-75
2023/12/15 10:44:09;;;;;;;8.27;7.68;;;10.10;55.80;;;;;;20336;6919;310493;-74
2023/12/15 10:46:35;;;;;;;8.60;7.80;;;10.10;55.40;;;;;;20403;6904;300066;-74
2023/12/15 10:49:01;;;;;;;6.03;5.53;;;10.10;55.10;;;;;;20613;6904;68273;-75
2023/12/15 10:51:29;;;;;;;7.30;6.80;;;9.90;56.80;;;;;;20400;6904;329702;-75
2023/12/15 10:53:56;;;;;;;7.83;6.07;;;9.80;56.90;;;;;;20613;6904;67735;-76
2023/12/15 10:56:21;;;;;;;7.55;7.00;;;9.60;57.50;;;;;;20390;6904;312283;-76
2023/12/15 10:58:46;;;;;;;7.68;7.12;;;9.70;57.10;;;;;;20358;6919;280323;-75
2023/12/15 11:01:12;;;;;;;7.77;7.20;;;9.70;57.70;;;;;;20405;6904;280572;-80
2023/12/15 11:03:37;;;;;;;8.13;6.62;;;9.90;56.60;;;;;;20616;6904;67724;-76
2023/12/15 11:06:03;;;;;;;6.43;5.78;;;9.80;57.30;;;;;;20625;6904;68143;-76
2023/12/15 11:08:29;;;;;;;5.70;5.20;;;9.50;58.00;;;;;;20610;6904;68150;-76
2023/12/15 11:10:54;;;;;;;5.93;5.53;;;9.30;58.90;;;;;;20614;6904;71211;-75
2023/12/15 11:13:51;;;;;;;8.17;7.37;;;9.10;59.50;;;;;;20359;6919;339416;-73
2023/12/15 11:16:20;;;;;;;8.43;7.67;;;9.20;59.40;;;;;;20351;6923;279006;-75
2023/12/15 11:18:45;;;;;;;8.30;7.60;;;9.60;58.30;;;;;;20317;6923;279580;-75
2023/12/15 11:21:11;;;;;;;7.10;6.47;;;9.80;58.00;;;;;;20575;6915;72472;-76
2023/12/15 11:23:56;;;;;;;8.27;7.67;;;9.80;58.40;;;;;;20378;6915;309796;-77
2023/12/15 11:26:28;;;;;;;6.37;5.90;;;9.80;57.90;;;;;;20590;6913;67836;-74
2023/12/15 11:29:02;;;;;;;6.80;6.20;;;9.80;58.50;;;;;;20575;6914;68504;-79
2023/12/15 11:31:28;;;;;;;6.37;5.30;;;9.50;58.90;;;;;;20552;6914;68748;-74
2023/12/15 11:33:53;;;;;;;8.27;7.68;;;9.30;59.70;;;;;;20376;6914;310807;-80
2023/12/15 11:36:19;;;;;;;7.27;6.57;;;9.40;59.20;;;;;;20591;6914;68709;-74
2023/12/15 11:38:50;;;;;;;6.70;6.03;;;9.40;59.50;;;;;;20584;6914;68319;-76
2023/12/15 11:41:17;;;;;;;8.23;7.62;;;9.30;60.00;;;;;;20373;6914;294176;-77
2023/12/15 11:43:43;;;;;;;6.20;5.73;;;9.50;59.50;;;;;;20571;6914;68811;-75
2023/12/15 11:46:07;;;;;;;6.40;5.90;;;9.50;59.70;;;;;;20583;6915;68397;-74
2023/12/15 11:48:36;;;;;;;7.47;6.97;;;9.40;60.10;;;;;;20367;6915;310942;-73
2023/12/15 11:51:02;;;;;;;6.37;5.93;;;9.50;59.40;;;;;;20559;6915;72426;-75
2023/12/15 11:53:27;;;;;;;5.27;4.90;;;9.60;59.60;;;;;;20559;6915;67792;-75
2023/12/15 11:55:53;;;;;;;5.93;5.43;;;9.50;60.10;;;;;;20567;6915;71361;-76
2023/12/15 11:58:22;;;;;;;7.60;6.90;;;9.40;60.60;;;;;;20370;6915;308989;-78
2023/12/15 12:00:47;;;;;;;6.77;6.27;;;9.50;59.90;;;;;;20581;6915;68793;-77
2023/12/15 12:03:13;;;;;;;7.03;6.53;;;9.60;60.10;;;;;;20369;6915;309843;-80
2023/12/15 12:05:40;;;;;;;6.13;5.60;;;9.80;59.50;;;;;;20578;6915;68672;-78
2023/12/15 12:08:04;;;;;;;6.80;6.30;;;9.80;59.50;;;;;;20371;6915;281466;-81
2023/12/15 12:10:33;;;;;;;5.90;5.40;;;9.90;58.70;;;;;;20581;6915;67710;-77
2023/12/15 12:12:58;;;;;;;7.35;6.75;;;9.90;59.10;;;;;;20306;6915;311142;-79
2023/12/15 12:15:24;;;;;;;6.47;5.87;;;10.00;57.50;;;;;;20583;6915;72493;-75
2023/12/15 12:17:50;;;;;;;6.73;6.27;;;10.10;57.10;;;;;;20370;6915;307016;-78
2023/12/15 12:20:16;;;;;;;7.23;6.63;;;10.10;57.30;;;;;;20359;6915;307924;-78
2023/12/15 12:22:42;;;;;;;7.43;6.85;;;10.30;56.10;;;;;;20388;6899;310265;-79
2023/12/15 12:25:07;;;;;;;6.28;5.78;;;10.50;55.30;;;;;;20605;6899;70180;-77
2023/12/15 12:27:33;;;;;;;5.80;5.30;;;10.40;55.90;;;;;;20618;6899;68169;-79
2023/12/15 12:29:59;;;;;;;5.37;4.97;;;9.90;58.40;;;;;;20620;6899;68205;-79
2023/12/15 12:32:25;;;;;;;5.37;4.97;;;9.90;58.40;;;;;;20638;6899;71363;-77
2023/12/15 12:34:50;;;;;;;5.47;4.97;;;9.70;59.10;;;;;;20634;6899;68544;-78
2023/12/15 12:37:18;;;;;;;5.82;5.25;;;9.40;60.20;;;;;;20637;6897;68665;-80
2023/12/15 12:39:44;;;;;;;6.75;6.15;;;9.30;60.10;;;;;;20419;6898;283581;-79
2023/12/15 12:42:10;;;;;;;5.72;5.28;;;9.50;59.10;;;;;;20634;6898;68172;-77
2023/12/15 12:44:36;;;;;;;5.40;4.90;;;9.60;59.50;;;;;;20632;6898;68546;-78
2023/12/15 12:47:02;;;;;;;6.80;6.30;;;9.50;59.90;;;;;;20425;6898;285870;-76
2023/12/15 12:49:28;;;;;;;7.20;6.67;;;9.90;58.50;;;;;;20407;6898;310817;-76
2023/12/15 12:51:54;;;;;;;7.30;6.82;;;9.90;58.50;;;;;;20418;6898;340294;-78
2023/12/15 12:54:20;;;;;;;5.45;4.90;;;10.20;56.80;;;;;;20633;6898;68988;-75
2023/12/15 12:56:46;;;;;;;5.70;5.40;;;10.20;57.20;;;;;;20418;6899;308812;-76
2023/12/15 12:59:11;;;;;;;4.70;4.40;;;10.30;56.60;;;;;;20629;6899;70893;-77
2023/12/15 13:01:37;;;;;;;5.30;4.90;;;10.20;57.10;;;;;;20424;6899;281756;-76
2023/12/15 13:04:03;;;;;;;4.80;4.50;;;10.30;56.00;;;;;;20424;6899;310160;-78
2023/12/15 13:06:28;;;;;;;5.00;4.70;;;10.50;55.00;;;;;;20427;6899;288285;-79
2023/12/15 13:08:54;;;;;;;4.67;4.43;;;10.70;53.90;;;;;;20413;6899;339113;-79
2023/12/15 13:11:19;;;;;;;4.93;4.63;;;10.90;53.50;;;;;;20424;6899;294226;-77
2023/12/15 13:13:45;;;;;;;4.35;3.95;;;11.00;53.40;;;;;;20639;6899;68803;-79
2023/12/15 13:16:11;;;;;;;4.60;4.30;;;10.80;54.20;;;;;;20430;6899;313278;-79
2023/12/15 13:18:37;;;;;;;4.62;4.35;;;10.80;53.90;;;;;;20396;6914;310932;-80
2023/12/15 13:21:02;;;;;;;4.13;3.73;;;10.80;53.10;;;;;;20640;6899;67641;-80
2023/12/15 13:23:28;;;;;;;3.97;3.67;;;10.60;53.90;;;;;;20632;6899;71163;-79
2023/12/15 13:25:54;;;;;;;4.57;4.27;;;10.30;54.90;;;;;;20382;6899;309256;-78
2023/12/15 13:28:20;;;;;;;4.77;4.40;;;10.30;54.60;;;;;;20420;6899;307330;-79
2023/12/15 13:30:46;;;;;;;4.30;3.90;;;10.50;54.20;;;;;;20609;6899;67754;-79
2023/12/15 13:33:15;;;;;;;3.87;3.58;;;10.40;54.70;;;;;;20640;6899;68035;-79
2023/12/15 13:35:38;;;;;;;3.30;3.07;;;10.20;55.60;;;;;;20632;6899;68237;-78
2023/12/15 13:38:04;;;;;;;3.10;2.80;;;10.00;56.20;;;;;;20635;6899;68264;-79
2023/12/15 13:40:30;;;;;;;3.80;3.60;;;9.70;57.70;;;;;;20416;6899;294115;-79
2023/12/15 13:42:57;;;;;;;3.25;3.05;;;9.80;56.50;;;;;;20638;6899;68443;-79
2023/12/15 13:45:25;;;;;;;5.03;2.80;;;9.70;58.30;;;;;;20639;6899;72330;-80
2023/12/15 13:47:50;;;;;;;2.90;2.70;;;9.70;57.50;;;;;;20638;6897;69033;-79
2023/12/15 13:50:15;;;;;;;3.00;2.80;;;9.50;58.00;;;;;;20631;6898;68612;-78
2023/12/15 13:52:43;;;;;;;3.70;3.50;;;9.40;58.60;;;;;;20425;6898;310228;-80
2023/12/15 13:55:09;;;;;;;4.10;3.80;;;9.50;57.20;;;;;;20432;6898;279686;-79
2023/12/15 13:57:36;;;;;;;3.20;3.00;;;9.80;56.40;;;;;;20417;6898;339887;-81
2023/12/15 14:00:03;;;;;;;2.50;2.40;;;10.10;54.50;;;;;;20420;6898;280227;-83
2023/12/15 14:02:27;;;;;;;2.23;2.13;;;10.30;53.40;;;;;;20634;6898;68055;-79
2023/12/15 14:04:53;;;;;;;2.12;1.92;;;10.20;54.10;;;;;;20635;6898;90786;-80
2023/12/15 14:07:18;;;;;;;2.73;2.60;;;9.90;55.90;;;;;;20427;6898;282207;-81
2023/12/15 14:09:46;;;;;;;2.90;2.60;;;10.00;54.20;;;;;;20416;6899;280582;-80
2023/12/15 14:12:10;;;;;;;2.80;2.60;;;10.20;53.80;;;;;;20413;6899;310529;-80
2023/12/15 14:14:37;;;;;;;2.57;2.30;;;10.50;53.10;;;;;;20420;6899;309601;-82
2023/12/15 14:17:06;;;;;;;2.20;2.10;;;10.50;52.50;;;;;;20643;6899;69123;-79
2023/12/15 14:19:31;;;;;;;2.10;2.00;;;10.30;53.20;;;;;;20407;6899;337095;-78
2023/12/15 14:21:57;;;;;;;1.97;1.87;;;10.30;52.90;;;;;;20634;6899;68711;-79
2023/12/15 14:24:22;;;;;;;1.58;1.50;;;10.10;53.70;;;;;;20618;6899;67677;-81
2023/12/15 14:26:49;;;;;;;1.40;1.40;;;9.80;55.60;;;;;;20631;6899;67778;-79
2023/12/15 14:29:15;;;;;;;1.63;1.60;;;9.60;56.50;;;;;;20620;6899;74239;-79
2023/12/15 14:31:41;;;;;;;1.80;1.70;;;9.40;57.20;;;;;;20610;6899;68148;-81
2023/12/15 14:34:07;;;;;;;2.20;2.10;;;9.30;57.80;;;;;;20416;6899;338448;-78
2023/12/15 14:36:32;;;;;;;1.85;1.77;;;9.40;56.90;;;;;;20662;6643;132847;-75
2023/12/15 14:39:07;;;;;;;2.37;2.13;;;9.40;57.20;;;;;;20508;6771;280133;-75
2023/12/15 14:41:44;;;;;;;1.80;1.70;;;9.60;56.30;;;;;;20853;6767;117500;-76
2023/12/15 14:44:21;;;;;;;2.00;1.90;;;9.40;57.30;;;;;;20803;6785;117278;-75
2023/12/15 14:46:56;;;;;;;2.43;2.23;;;9.40;57.30;;;;;;20625;6767;290619;-77
2023/12/15 14:49:32;;;;;;;2.33;2.13;;;9.50;56.30;;;;;;20544;6782;280831;-79
2023/12/15 14:52:07;;;;;;;2.10;2.00;;;9.80;55.40;;;;;;20531;6794;309136;-76
2023/12/15 14:54:43;;;;;;;2.00;1.90;;;10.00;53.70;;;;;;20612;6764;322537;-75
2023/12/15 14:57:19;;;;;;;2.10;2.00;;;10.20;53.10;;;;;;20604;6764;308008;-76
2023/12/15 14:59:54;;;;;;;3.50;1.97;;;10.30;52.80;;;;;;20428;6779;311759;-75
2023/12/15 15:02:31;;;;;;;3.53;1.57;;;10.20;53.30;;;;;;20793;6779;117061;-75
2023/12/15 15:05:06;;;;;;;1.90;1.80;;;10.20;53.00;;;;;;20776;6779;119001;-74
2023/12/15 15:07:43;;;;;;;1.83;1.73;;;9.80;54.90;;;;;;20549;6779;306767;-74
2023/12/15 15:10:18;;;;;;;1.90;1.80;;;9.80;54.80;;;;;;20414;6779;309685;-74
2023/12/15 15:12:55;;;;;;;1.90;1.80;;;10.20;52.40;;;;;;20570;6779;301428;-75
2023/12/15 15:15:30;;;;;;;2.00;1.50;;;10.10;52.30;;;;;;20840;6764;119146;-75
2023/12/15 15:18:08;;;;;;;1.33;1.27;;;9.60;55.10;;;;;;20782;6651;125866;-81
2023/12/15 15:20:43;;;;;;;1.10;1.10;;;9.70;55.20;;;;;;20571;6847;117139;-75
2023/12/15 15:23:20;;;;;;;1.50;1.40;;;9.10;56.80;;;;;;20813;6779;116903;-75
2023/12/15 15:25:56;;;;;;;1.52;1.50;;;9.30;55.40;;;;;;20561;6779;307622;-74
2023/12/15 15:28:32;;;;;;;1.83;1.30;;;9.20;55.80;;;;;;20777;6779;121630;-75
2023/12/15 15:31:08;;;;;;;1.13;1.13;;;9.10;56.90;;;;;;20767;6783;117005;-76
2023/12/15 15:33:46;;;;;;;1.30;1.20;;;8.90;57.60;;;;;;20662;6817;117234;-76
2023/12/15 15:36:27;;;;;;;1.40;1.33;;;8.90;57.40;;;;;;20750;6794;116298;-76
2023/12/15 15:39:00;;;;;;;1.07;1.07;;;8.80;58.00;;;;;;20764;6766;117119;-75
2023/12/15 15:41:37;;;;;;;0.83;0.83;;;8.70;58.40;;;;;;20849;6764;116953;-74
2023/12/15 15:44:13;;;;;;;1.47;1.40;;;8.50;59.10;;;;;;20806;6779;117269;-76
2023/12/15 15:46:50;;;;;;;1.50;1.40;;;8.40;59.30;;;;;;20708;6786;117121;-77
2023/12/15 15:49:27;;;;;;;1.13;1.13;;;8.40;59.30;;;;;;20618;6781;119643;-75
2023/12/15 15:52:02;;;;;;;2.60;1.80;;;8.60;58.50;;;;;;20536;6783;296994;-76
2023/12/15 15:54:38;;;;;;;1.30;1.30;;;8.60;58.40;;;;;;20770;6783;116954;-78
2023/12/15 15:57:15;;;;;;;1.40;1.30;;;8.70;58.50;;;;;;20858;6761;118236;-75
2023/12/15 15:59:50;;;;;;;1.27;1.27;;;8.70;58.90;;;;;;20620;6781;117791;-78
2023/12/15 16:02:38;;;;;;;1.60;1.50;;;8.60;59.40;;;;;;20791;6778;117650;-74
2023/12/15 16:05:17;;;;;;;2.25;2.05;;;8.50;59.80;;;;;;20527;6811;323362;-74
2023/12/15 16:07:51;;;;;;;2.20;2.00;;;8.80;58.60;;;;;;20773;6776;117874;-76
2023/12/15 16:10:30;;;;;;;1.77;1.67;;;8.90;58.70;;;;;;20677;6761;117427;-76
2023/12/15 16:13:03;;;;;;;3.40;2.50;;;8.80;59.10;;;;;;20638;6775;306268;-76
2023/12/15 16:15:39;;;;;;;2.27;2.17;;;9.00;58.90;;;;;;20801;6781;117413;-78
2023/12/15 16:18:16;;;;;;;3.67;3.10;;;9.00;59.10;;;;;;20546;6793;307729;-78
2023/12/15 16:20:53;;;;;;;4.67;3.03;;;9.20;58.90;;;;;;20618;6784;117741;-77
2023/12/15 16:23:28;;;;;;;2.90;2.70;;;9.10;58.80;;;;;;20787;6773;119575;-78
2023/12/15 16:26:05;;;;;;;3.00;2.80;;;8.80;59.90;;;;;;20803;6773;119143;-76
2023/12/15 16:28:42;;;;;;;5.43;3.03;;;8.80;59.80;;;;;;20599;6776;278261;-77
2023/12/15 16:31:20;;;;;;;3.35;3.15;;;9.00;59.00;;;;;;20412;6776;338810;-76
2023/12/15 16:33:53;;;;;;;3.35;2.92;;;9.30;57.80;;;;;;20519;6792;298445;-78
2023/12/15 16:36:29;;;;;;;3.70;2.90;;;9.50;57.50;;;;;;20767;6791;118624;-78
2023/12/15 17:43:53;;;;;;;3.10;2.90;;;10.50;52.20;;;;;;20742;6601;336108;-75
2023/12/15 17:46:29;;;;;;;2.93;2.73;;;10.20;53.00;;;;;;20839;6819;117727;-75
2023/12/15 17:48:52;;;;;;;3.10;2.90;;;10.20;53.00;;;;;;20475;6841;300691;-75
2023/12/15 17:51:17;;;;;;;3.17;2.97;;;10.10;53.10;;;;;;20363;6900;300140;-75
2023/12/15 17:53:43;;;;;;;4.00;2.90;;;10.10;52.90;;;;;;20566;6889;144590;-76
2023/12/15 17:56:08;;;;;;;3.00;2.90;;;9.90;54.50;;;;;;20428;6882;338252;-75
2023/12/15 17:58:34;;;;;;;3.33;2.77;;;9.90;54.50;;;;;;20628;6882;117327;-75
2023/12/15 18:01:00;;;;;;;15.83;14.37;;;9.70;55.10;;;;;;20361;6897;309649;-75
2023/12/15 18:03:26;;;;;;;18.23;16.62;;;9.70;55.30;;;;;;20392;6903;310936;-75
2023/12/15 18:05:51;;;;;;;9.50;8.70;;;9.90;55.00;;;;;;20573;6903;118113;-75
2023/12/15 18:08:16;;;;;;;6.33;5.83;;;9.70;55.30;;;;;;20589;6910;70946;-74
2023/12/15 18:10:44;;;;;;;7.37;6.67;;;9.40;56.00;;;;;;20286;6931;343089;-74
2023/12/15 18:13:08;;;;;;;5.32;4.82;;;9.40;56.00;;;;;;20518;6925;117604;-74
2023/12/15 18:15:34;;;;;;;4.43;4.07;;;9.10;57.20;;;;;;20542;6913;117624;-74
2023/12/15 18:18:00;;;;;;;12.17;10.97;;;8.90;58.60;;;;;;20535;6910;117214;-74
2023/12/15 18:20:26;;;;;;;13.53;11.80;;;8.70;58.40;;;;;;20589;6896;117807;-74
2023/12/15 18:22:54;;;;;;;8.33;7.73;;;8.50;59.30;;;;;;20628;6893;117650;-75
2023/12/15 18:25:18;;;;;;;7.50;6.93;;;8.50;58.70;;;;;;20578;6908;117389;-74
2023/12/15 18:27:44;;;;;;;8.30;7.70;;;8.40;59.10;;;;;;20351;6902;310912;-75
2023/12/15 18:30:11;;;;;;;6.80;6.37;;;8.80;60.00;;;;;;20341;6893;310761;-76
2023/12/15 18:32:37;;;;;;;6.10;5.60;;;8.80;59.40;;;;;;20610;6893;118998;-74
2023/12/15 18:35:03;;;;;;;5.05;4.62;;;8.80;59.30;;;;;;20614;6896;118332;-75
2023/12/15 18:37:31;;;;;;;5.80;5.30;;;8.70;59.80;;;;;;20601;6896;118267;-75
2023/12/15 18:39:57;;;;;;;8.33;7.70;;;8.50;60.20;;;;;;20278;6919;281175;-74
2023/12/15 18:42:22;;;;;;;6.13;5.63;;;8.60;60.40;;;;;;20588;6901;118001;-76
2023/12/15 18:44:47;;;;;;;7.85;7.25;;;8.60;60.40;;;;;;20404;6883;309051;-75
2023/12/15 18:47:13;;;;;;;11.43;10.27;;;8.70;60.50;;;;;;20656;6884;117787;-75
2023/12/15 18:49:38;;;;;;;7.80;7.07;;;8.70;60.50;;;;;;20439;6883;327329;-75
2023/12/15 18:52:04;;;;;;;6.30;5.67;;;8.80;60.40;;;;;;20591;6884;117360;-75
2023/12/15 18:54:30;;;;;;;8.70;8.10;;;8.80;60.50;;;;;;20408;6897;279516;-76
2023/12/15 18:56:56;;;;;;;9.05;8.32;;;8.80;60.50;;;;;;20396;6898;280799;-75
2023/12/15 18:59:23;;;;;;;7.75;7.00;;;8.90;60.20;;;;;;20600;6898;117492;-75
2023/12/15 19:01:51;;;;;;;6.37;5.57;;;8.70;61.50;;;;;;20251;6898;121514;-75
2023/12/15 19:04:17;;;;;;;4.63;4.27;;;8.60;60.70;;;;;;20620;6887;118588;-77
2023/12/15 19:06:44;;;;;;;5.83;5.33;;;8.40;61.40;;;;;;20381;6887;312225;-77
2023/12/15 19:09:10;;;;;;;5.40;5.10;;;8.50;61.60;;;;;;20358;6900;310565;-75
2023/12/15 19:11:35;;;;;;;5.67;5.10;;;8.80;61.00;;;;;;20379;6893;280093;-75
2023/12/15 19:14:01;;;;;;;5.40;5.00;;;9.00;60.60;;;;;;20372;6893;309829;-76
2023/12/15 19:16:27;;;;;;;6.70;6.30;;;9.30;60.30;;;;;;20392;6898;341259;-75
2023/12/15 19:18:53;;;;;;;5.60;5.30;;;9.20;60.20;;;;;;20608;6898;117183;-75
2023/12/15 19:21:19;;;;;;;5.67;5.23;;;8.90;61.50;;;;;;20592;6898;117418;-76
2023/12/15 19:23:45;;;;;;;7.13;6.57;;;8.90;60.90;;;;;;20376;6898;309292;-76
2023/12/15 19:26:10;;;;;;;6.70;6.20;;;8.90;61.40;;;;;;20398;6897;279910;-75
2023/12/15 19:28:36;;;;;;;8.10;7.40;;;9.10;61.10;;;;;;20403;6897;280620;-75
2023/12/15 19:31:02;;;;;;;9.37;8.67;;;9.40;59.80;;;;;;20352;6893;310224;-75
2023/12/15 19:33:28;;;;;;;7.53;6.97;;;9.40;59.80;;;;;;20562;6893;117429;-76
2023/12/15 19:35:54;;;;;;;8.30;7.63;;;9.20;60.00;;;;;;20604;6893;117433;-75
2023/12/15 19:38:19;;;;;;;11.37;10.17;;;8.90;60.90;;;;;;20414;6893;280083;-77
2023/12/15 19:40:45;;;;;;;10.90;10.00;;;8.90;61.30;;;;;;20382;6893;279881;-74
2023/12/15 19:43:12;;;;;;;8.38;7.78;;;9.10;60.90;;;;;;20567;6893;121689;-76
2023/12/15 19:45:39;;;;;;;8.20;7.50;;;9.00;61.00;;;;;;20598;6893;120372;-76
2023/12/15 19:48:04;;;;;;;7.90;7.20;;;8.70;61.60;;;;;;20604;6893;117397;-76
2023/12/15 19:50:31;;;;;;;9.67;9.00;;;8.60;62.70;;;;;;20378;6893;310268;-77
2023/12/15 19:52:56;;;;;;;10.50;9.70;;;8.50;62.60;;;;;;20393;6894;281138;-75
2023/12/15 19:55:22;;;;;;;8.93;8.15;;;8.80;62.10;;;;;;20633;6883;117587;-75
2023/12/15 19:57:49;;;;;;;11.03;10.17;;;8.80;62.10;;;;;;20382;6884;309444;-75
2023/12/15 20:00:14;;;;;;;9.53;8.83;;;8.80;62.30;;;;;;20597;6897;118334;-75
2023/12/15 20:02:40;;;;;;;9.70;8.70;;;8.80;62.30;;;;;;20615;6897;117046;-77
2023/12/15 20:05:06;;;;;;;11.50;10.60;;;8.60;62.90;;;;;;20398;6895;310292;-75
2023/12/15 20:07:31;;;;;;;11.13;10.23;;;8.70;63.10;;;;;;20396;6896;310018;-75
2023/12/15 20:09:58;;;;;;;8.82;8.15;;;8.90;62.40;;;;;;20581;6896;118128;-76
2023/12/15 20:12:24;;;;;;;9.80;9.00;;;8.90;62.40;;;;;;20614;6897;117742;-75
2023/12/15 20:14:49;;;;;;;11.80;10.70;;;8.70;63.00;;;;;;20404;6893;281502;-76
2023/12/15 20:17:15;;;;;;;11.60;10.70;;;8.70;62.80;;;;;;20394;6893;339631;-76
2023/12/15 20:19:42;;;;;;;11.33;10.33;;;9.20;61.80;;;;;;20381;6893;310800;-77
2023/12/15 20:22:08;;;;;;;10.60;9.60;;;9.10;61.70;;;;;;20409;6878;338560;-76
2023/12/15 20:24:34;;;;;;;9.52;8.73;;;9.40;61.30;;;;;;20659;6878;117946;-77
2023/12/15 20:27:00;;;;;;;13.43;12.23;;;9.20;61.80;;;;;;20462;6879;309734;-75
2023/12/15 20:29:25;;;;;;;11.60;10.43;;;9.10;61.40;;;;;;20444;6879;121900;-77
2023/12/15 20:31:51;;;;;;;18.57;17.07;;;9.00;61.80;;;;;;20381;6893;311793;-75
2023/12/15 20:34:17;;;;;;;22.65;20.52;;;9.10;61.80;;;;;;20580;6893;117935;-74
2023/12/15 20:36:42;;;;;;;31.00;27.43;;;9.00;62.40;;;;;;20591;6902;117831;-75
2023/12/15 20:39:08;;;;;;;42.95;33.97;;;8.70;62.50;;;;;;20606;6648;117746;-76
2023/12/15 20:41:44;;;;;;;29.60;26.93;;;8.60;63.00;;;;;;20561;6791;306816;-76
2023/12/15 20:44:20;;;;;;;15.97;14.57;;;8.60;63.00;;;;;;20578;6779;285654;-76
2023/12/15 20:46:56;;;;;;;15.68;14.48;;;8.90;62.10;;;;;;20678;6749;306304;-74
2023/12/15 20:49:31;;;;;;;13.70;12.60;;;9.20;61.30;;;;;;20541;6742;338987;-74
2023/12/15 20:52:07;;;;;;;15.77;14.37;;;9.30;60.60;;;;;;20844;6756;119778;-73
2023/12/15 20:54:42;;;;;;;15.17;13.67;;;9.20;60.90;;;;;;20824;6771;117352;-74
2023/12/15 20:57:18;;;;;;;12.50;10.67;;;8.80;61.60;;;;;;20865;6768;117650;-74
2023/12/15 20:59:55;;;;;;;12.37;11.17;;;8.60;62.50;;;;;;20598;6779;118594;-74
2023/12/15 21:02:37;;;;;;;19.20;17.40;;;8.40;63.20;;;;;;20578;6777;280691;-74
2023/12/15 21:05:13;;;;;;;18.97;17.17;;;8.50;63.10;;;;;;20581;6761;308792;-74
2023/12/15 21:07:48;;;;;;;22.80;20.40;;;8.80;62.20;;;;;;20757;6776;117914;-74
2023/12/15 21:10:27;;;;;;;18.50;16.70;;;8.80;62.20;;;;;;20483;6755;343662;-74
2023/12/15 21:13:00;;;;;;;14.05;12.85;;;8.80;62.00;;;;;;20659;6755;307741;-74
2023/12/15 21:15:35;;;;;;;16.20;14.60;;;9.10;62.00;;;;;;20664;6752;307363;-74
2023/12/15 21:18:11;;;;;;;18.93;17.17;;;9.20;60.70;;;;;;20581;6768;308002;-75
2023/12/15 21:20:46;;;;;;;19.13;17.20;;;9.40;60.30;;;;;;20345;6860;281178;-75
2023/12/15 21:23:22;;;;;;;15.67;14.17;;;9.50;60.00;;;;;;20593;6776;311306;-75
2023/12/15 21:25:58;;;;;;;16.08;14.65;;;9.60;59.50;;;;;;20615;6779;309620;-75
2023/12/15 21:28:34;;;;;;;14.37;12.87;;;9.40;59.80;;;;;;20853;6754;117153;-76
2023/12/15 21:31:10;;;;;;;15.02;13.73;;;9.40;59.70;;;;;;20580;6762;307937;-75
2023/12/15 21:33:45;;;;;;;12.02;11.02;;;9.30;59.90;;;;;;20565;6780;315780;-76
2023/12/15 21:36:23;;;;;;;9.40;8.60;;;9.20;60.10;;;;;;20894;6749;117623;-75
2023/12/15 21:38:57;;;;;;;9.33;8.30;;;9.20;60.10;;;;;;20817;6764;117120;-75
2023/12/15 21:41:33;;;;;;;9.97;9.17;;;9.00;61.00;;;;;;20616;6764;307875;-75
2023/12/15 21:44:09;;;;;;;8.87;8.13;;;9.00;61.30;;;;;;20796;6778;119282;-74
2023/12/15 21:46:45;;;;;;;7.17;6.60;;;8.90;61.50;;;;;;20898;6749;118718;-76
2023/12/15 21:49:20;;;;;;;10.50;9.70;;;8.70;62.10;;;;;;20569;6754;338996;-75
2023/12/15 21:51:56;;;;;;;9.33;8.53;;;8.70;62.00;;;;;;20813;6769;118843;-75
2023/12/15 21:54:33;;;;;;;11.00;10.10;;;8.80;61.70;;;;;;20637;6762;341494;-74
2023/12/15 21:57:08;;;;;;;17.73;15.90;;;8.80;61.70;;;;;;20613;6761;306835;-74
2023/12/15 21:59:53;;;;;;;26.73;19.67;;;9.10;60.90;;;;;;20762;6776;117857;-76
2023/12/15 22:02:19;;;;;;;13.90;12.50;;;9.00;61.00;;;;;;20684;6746;309094;-74
2023/12/15 22:04:55;;;;;;;14.13;12.63;;;9.00;60.90;;;;;;20551;6796;306128;-75
2023/12/15 22:07:31;;;;;;;19.83;14.80;;;9.00;60.80;;;;;;20784;6794;118010;-75
2023/12/15 22:10:07;;;;;;;26.63;18.93;;;9.00;60.80;;;;;;20647;6773;118892;-75
2023/12/15 22:12:44;;;;;;;12.77;11.57;;;8.80;61.80;;;;;;20583;6779;307768;-75
2023/12/15 22:15:19;;;;;;;9.13;8.33;;;8.80;61.80;;;;;;20709;6792;117554;-75
2023/12/15 22:17:55;;;;;;;8.03;7.40;;;8.70;62.00;;;;;;20768;6779;117378;-75
2023/12/15 22:20:31;;;;;;;9.77;8.95;;;8.60;62.70;;;;;;20435;6781;309903;-75
2023/12/15 22:23:07;;;;;;;15.37;13.77;;;8.60;63.20;;;;;;20902;6747;118585;-75
2023/12/15 22:25:43;;;;;;;35.55;32.05;;;8.60;62.70;;;;;;20619;6762;305877;-75
2023/12/15 22:28:22;;;;;;;22.13;19.73;;;8.80;62.40;;;;;;20846;6765;118499;-77
2023/12/15 22:30:56;;;;;;;11.37;10.50;;;8.90;62.20;;;;;;20605;6764;289379;-75
2023/12/15 22:33:31;;;;;;;10.90;10.03;;;9.10;61.40;;;;;;20620;6765;278592;-75
2023/12/15 22:36:11;;;;;;;9.97;9.10;;;9.10;61.40;;;;;;20670;6746;285945;-75
2023/12/15 22:38:44;;;;;;;13.73;11.83;;;9.30;60.80;;;;;;20868;6746;116872;-76
2023/12/15 22:41:19;;;;;;;9.88;9.07;;;9.20;61.00;;;;;;20664;6759;277200;-74
2023/12/15 22:43:57;;;;;;;7.33;6.73;;;9.20;60.80;;;;;;20715;6807;117133;-75
2023/12/15 22:46:30;;;;;;;8.70;8.00;;;9.10;61.20;;;;;;20569;6789;308748;-75
2023/12/15 22:49:09;;;;;;;7.87;7.20;;;9.10;61.20;;;;;;20757;6774;117128;-75
2023/12/15 22:51:41;;;;;;;8.57;7.90;;;9.00;61.50;;;;;;20596;6759;286604;-75
2023/12/15 22:54:17;;;;;;;9.47;7.47;;;9.00;61.00;;;;;;20857;6762;117628;-74
2023/12/15 22:56:53;;;;;;;8.30;7.60;;;8.90;61.20;;;;;;20847;6765;116962;-74
2023/12/15 22:59:28;;;;;;;10.60;9.67;;;8.70;61.90;;;;;;20535;6769;309196;-74
2023/12/15 23:02:04;;;;;;;10.57;9.70;;;8.80;61.70;;;;;;20574;6774;309285;-74
2023/12/15 23:04:40;;;;;;;16.98;14.73;;;9.00;61.20;;;;;;20639;6759;338507;-74
2023/12/15 23:07:16;;;;;;;14.87;13.30;;;9.40;60.20;;;;;;20611;6774;307790;-74
2023/12/15 23:09:52;;;;;;;10.63;9.63;;;9.40;60.20;;;;;;20674;6777;118993;-74
2023/12/15 23:12:30;;;;;;;10.73;9.73;;;9.20;60.50;;;;;;20686;6759;294773;-74
2023/12/15 23:15:03;;;;;;;10.93;9.98;;;9.20;60.60;;;;;;20653;6762;299134;-74
2023/12/15 23:17:39;;;;;;;9.70;8.77;;;9.30;60.30;;;;;;20858;6762;117806;-74
2023/12/15 23:20:14;;;;;;;10.20;8.10;;;9.20;60.60;;;;;;20690;6766;117564;-74
2023/12/15 23:22:50;;;;;;;11.93;10.80;;;8.80;61.30;;;;;;20666;6759;336444;-74
2023/12/15 23:25:26;;;;;;;11.55;10.55;;;8.90;61.70;;;;;;20749;6744;335704;-74
2023/12/15 23:28:01;;;;;;;8.43;7.53;;;9.10;60.80;;;;;;20853;6759;117725;-74
2023/12/15 23:30:37;;;;;;;11.70;9.07;;;9.00;60.90;;;;;;20651;6770;118443;-74
2023/12/15 23:33:13;;;;;;;10.32;9.43;;;8.80;61.70;;;;;;20605;6774;337348;-74
2023/12/15 23:35:48;;;;;;;10.18;9.20;;;8.80;61.80;;;;;;20603;6759;280063;-75
2023/12/15 23:38:24;;;;;;;7.97;7.37;;;9.00;61.10;;;;;;20792;6774;117447;-74
2023/12/15 23:40:59;;;;;;;9.25;8.45;;;8.90;61.20;;;;;;20634;6813;336623;-74
2023/12/15 23:43:36;;;;;;;9.27;8.57;;;9.10;60.80;;;;;;20668;6755;307082;-74
2023/12/15 23:46:11;;;;;;;8.00;7.30;;;9.10;60.80;;;;;;20871;6755;116885;-74
2023/12/15 23:48:47;;;;;;;10.30;9.43;;;9.00;61.00;;;;;;20610;6755;339212;-74
2023/12/15 23:51:23;;;;;;;8.40;7.70;;;8.80;61.70;;;;;;20666;6826;119028;-77
2023/12/15 23:54:00;;;;;;;7.93;7.17;;;8.80;61.40;;;;;;20804;6774;117461;-74
2023/12/15 23:56:35;;;;;;;9.90;9.20;;;8.50;62.10;;;;;;20612;6774;317928;-74
2023/12/15 23:59:10;;;;;;;10.95;9.85;;;8.60;62.50;;;;;;20530;6774;281831;-74
